Flugplatz Salzgitter-Drütte

Für EDVS sind keine METAR/TAF Berichte vorhanden.
Es werden die Flugwettermeldungen vom Flugplatz Braunschweig Wolfsburg in 20 km Entfernung angezeigt.

Bericht für EDVE

vom 10.04. um 11:20 UTC

Wind 5 kt aus 90°

Sichtweite 10 km oder mehr

gering bewölkt in 1500 ft

aufgebrochene Bewölkung in 1700 ft

bedeckt in 3000 ft

Temperatur 7.0°C

Taupunkt 2.0°C

Luftfeuchtigkeit 70%

Luftdruck 1016 hPa

EDVE 101120Z 09005KT 020V130 9999 FEW015 BKN017 OVC030 07/02 Q1016

Prognose für EDVE

vom 10.04. um 11:00 UTC

Zwischen 12:00 UTC und 16:00 UTC

Wind 4 kt aus 90°

Sichtweite 8000 m

gering bewölkt in 1000 ft

aufgebrochene Bewölkung in 1200 ft


Zwischen 12:00 UTC und 14:00 UTC zeitweise

aufgelockert bewölkt in 1200 ft

aufgebrochene Bewölkung in 3000 ft


Zwischen 16:00 UTC und 21:00 UTC zeitweise

Sichtweite 4000 m

Regen

Sprühregen

aufgebrochene Bewölkung in 800 ft


Zwischen 16:00 und 19:00 UTC übergehend zu

Wind 9 kt aus 110°

Sichtweite 8000 m

gering bewölkt in 1000 ft

aufgebrochene Bewölkung in 1200 ft

TAF EDVE 101100Z 1012/1021 09004KT 8000 FEW010 BKN012 TEMPO 1012/1014 SCT012 BKN030 TEMPO 1016/1021 4000 RADZ BKN008 BECMG 1016/1019 11009KT
Impressum